Buchanan Airport

Jump to: basic info | weather | comments

Related pages: nearby airports | nearby navaids | notams | map

Basic information (top)

Codes: UCN GLBU
Location: lon 5.167650, lat -9.283470, elev 41 ft / 12 m msl
Status: small_airport
Scheduled airline service: no
Links: Wikipedia Mobile

Weather (top)

Current conditions for Roberts International Airport 91nm (168km) NW (rec'd 2015/05/06 15:30Z):

GLRB 061530Z 20008KT 9999 BKN022 FEW027 CB 30/25 Q1011 RMK CB-SW

Airport forecast for Roberts International Airport 91nm (168km) NW (rec'd 2015/05/06 12:51Z):

TAF GLRB 061000Z 0612/0718 23012KT 9999 BKN022 
      TEMPO 0614/0619 22009KT SCT024 SCT120 
      BECMG 0620/0622 19006KT 7000 RA/TSRA BKN016 FEW025CB

Latest comments (top)

No comments yet for Buchanan Airport

More... (top)

See also NOTAMs and nearby airports and navaids, or visit the Buchanan Airport page at the main OurAirports website..